sensor_id;sensor_type;location;lat;lon;timestamp;P1;durP1;ratioP1;P2;durP2;ratioP2
60203;SDS011;46068;52.132;4.618;2023-07-31T00:00:39;31.25;;;7.30;;
60203;SDS011;46068;52.132;4.618;2023-07-31T00:03:05;31.30;;;7.97;;
60203;SDS011;46068;52.132;4.618;2023-07-31T00:05:32;28.38;;;6.60;;
60203;SDS011;46068;52.132;4.618;2023-07-31T00:07:58;28.95;;;6.63;;
60203;SDS011;46068;52.132;4.618;2023-07-31T00:10:26;29.80;;;7.20;;
60203;SDS011;46068;52.132;4.618;2023-07-31T00:12:52;23.80;;;5.93;;
60203;SDS011;46068;52.132;4.618;2023-07-31T00:15:18;23.83;;;5.85;;
60203;SDS011;46068;52.132;4.618;2023-07-31T00:17:44;22.08;;;4.78;;
60203;SDS011;46068;52.132;4.618;2023-07-31T00:20:11;15.00;;;4.88;;
60203;SDS011;46068;52.132;4.618;2023-07-31T00:22:38;17.67;;;4.47;;
60203;SDS011;46068;52.132;4.618;2023-07-31T00:25:04;17.85;;;4.63;;
60203;SDS011;46068;52.132;4.618;2023-07-31T00:27:32;14.95;;;4.10;;
60203;SDS011;46068;52.132;4.618;2023-07-31T00:29:59;16.13;;;4.45;;
60203;SDS011;46068;52.132;4.618;2023-07-31T00:32:25;12.80;;;4.13;;
60203;SDS011;46068;52.132;4.618;2023-07-31T00:34:51;13.02;;;3.38;;
60203;SDS011;46068;52.132;4.618;2023-07-31T00:37:17;11.20;;;3.25;;
60203;SDS011;46068;52.132;4.618;2023-07-31T00:39:44;11.70;;;3.30;;
60203;SDS011;46068;52.132;4.618;2023-07-31T00:42:10;10.48;;;3.53;;
60203;SDS011;46068;52.132;4.618;2023-07-31T00:44:38;17.48;;;4.40;;
60203;SDS011;46068;52.132;4.618;2023-07-31T00:47:04;21.88;;;5.13;;
60203;SDS011;46068;52.132;4.618;2023-07-31T00:49:31;19.52;;;4.93;;
60203;SDS011;46068;52.132;4.618;2023-07-31T00:51:57;21.75;;;5.93;;
60203;SDS011;46068;52.132;4.618;2023-07-31T00:54:23;24.88;;;5.88;;
60203;SDS011;46068;52.132;4.618;2023-07-31T00:56:50;27.48;;;6.32;;
60203;SDS011;46068;52.132;4.618;2023-07-31T00:59:16;27.25;;;6.05;;
60203;SDS011;46068;52.132;4.618;2023-07-31T01:01:45;25.60;;;6.30;;
60203;SDS011;46068;52.132;4.618;2023-07-31T01:04:11;30.98;;;6.70;;
60203;SDS011;46068;52.132;4.618;2023-07-31T01:06:40;30.63;;;5.85;;
60203;SDS011;46068;52.132;4.618;2023-07-31T01:09:11;32.40;;;7.13;;
60203;SDS011;46068;52.132;4.618;2023-07-31T01:11:42;25.60;;;7.05;;
60203;SDS011;46068;52.132;4.618;2023-07-31T01:14:09;32.95;;;7.15;;
60203;SDS011;46068;52.132;4.618;2023-07-31T01:16:35;35.85;;;7.38;;
60203;SDS011;46068;52.132;4.618;2023-07-31T01:19:03;29.73;;;6.75;;
60203;SDS011;46068;52.132;4.618;2023-07-31T01:21:35;28.27;;;6.20;;
60203;SDS011;46068;52.132;4.618;2023-07-31T01:26:47;29.20;;;6.22;;
60203;SDS011;46068;52.132;4.618;2023-07-31T01:29:15;25.88;;;6.40;;
60203;SDS011;46068;52.132;4.618;2023-07-31T01:31:43;32.25;;;7.10;;
60203;SDS011;46068;52.132;4.618;2023-07-31T01:34:11;27.30;;;6.43;;
60203;SDS011;46068;52.132;4.618;2023-07-31T01:36:38;28.17;;;6.93;;
60203;SDS011;46068;52.132;4.618;2023-07-31T01:39:05;31.95;;;6.78;;
60203;SDS011;46068;52.132;4.618;2023-07-31T01:41:31;33.25;;;7.75;;
60203;SDS011;46068;52.132;4.618;2023-07-31T01:43:59;27.60;;;6.78;;
60203;SDS011;46068;52.132;4.618;2023-07-31T01:46:25;38.72;;;7.47;;
60203;SDS011;46068;52.132;4.618;2023-07-31T01:48:51;37.60;;;7.47;;
60203;SDS011;46068;52.132;4.618;2023-07-31T01:51:18;30.73;;;6.28;;
60203;SDS011;46068;52.132;4.618;2023-07-31T01:53:44;35.97;;;8.55;;
60203;SDS011;46068;52.132;4.618;2023-07-31T01:56:10;27.00;;;6.53;;
60203;SDS011;46068;52.132;4.618;2023-07-31T01:58:36;30.73;;;7.65;;
60203;SDS011;46068;52.132;4.618;2023-07-31T02:01:04;27.95;;;6.68;;
60203;SDS011;46068;52.132;4.618;2023-07-31T02:03:30;28.67;;;7.28;;
60203;SDS011;46068;52.132;4.618;2023-07-31T02:05:57;29.42;;;7.20;;
60203;SDS011;46068;52.132;4.618;2023-07-31T02:08:23;32.28;;;6.88;;
60203;SDS011;46068;52.132;4.618;2023-07-31T02:10:49;30.50;;;6.60;;
60203;SDS011;46068;52.132;4.618;2023-07-31T02:13:15;27.90;;;6.45;;
60203;SDS011;46068;52.132;4.618;2023-07-31T02:15:42;29.00;;;7.30;;
60203;SDS011;46068;52.132;4.618;2023-07-31T02:18:09;39.95;;;7.40;;
60203;SDS011;46068;52.132;4.618;2023-07-31T02:20:36;23.55;;;5.72;;
60203;SDS011;46068;52.132;4.618;2023-07-31T02:23:02;28.33;;;6.57;;
60203;SDS011;46068;52.132;4.618;2023-07-31T02:25:28;21.23;;;5.95;;
60203;SDS011;46068;52.132;4.618;2023-07-31T02:27:54;32.13;;;6.57;;
60203;SDS011;46068;52.132;4.618;2023-07-31T02:30:21;32.25;;;6.90;;
60203;SDS011;46068;52.132;4.618;2023-07-31T02:32:47;29.20;;;7.15;;
60203;SDS011;46068;52.132;4.618;2023-07-31T02:35:15;35.75;;;6.97;;
60203;SDS011;46068;52.132;4.618;2023-07-31T02:37:41;32.17;;;7.60;;
60203;SDS011;46068;52.132;4.618;2023-07-31T02:40:07;34.58;;;6.30;;
60203;SDS011;46068;52.132;4.618;2023-07-31T02:42:34;26.73;;;7.18;;
60203;SDS011;46068;52.132;4.618;2023-07-31T02:45:00;32.88;;;7.63;;
60203;SDS011;46068;52.132;4.618;2023-07-31T02:47:26;29.48;;;7.22;;
60203;SDS011;46068;52.132;4.618;2023-07-31T02:49:53;34.10;;;7.47;;
60203;SDS011;46068;52.132;4.618;2023-07-31T02:52:22;30.10;;;6.47;;
60203;SDS011;46068;52.132;4.618;2023-07-31T02:54:48;26.90;;;6.93;;
60203;SDS011;46068;52.132;4.618;2023-07-31T02:57:14;28.05;;;6.93;;
60203;SDS011;46068;52.132;4.618;2023-07-31T02:59:41;36.22;;;6.55;;
60203;SDS011;46068;52.132;4.618;2023-07-31T03:02:07;38.33;;;7.28;;
60203;SDS011;46068;52.132;4.618;2023-07-31T03:04:34;26.83;;;6.70;;
60203;SDS011;46068;52.132;4.618;2023-07-31T03:07:00;32.42;;;7.07;;
60203;SDS011;46068;52.132;4.618;2023-07-31T03:09:28;30.92;;;6.68;;
60203;SDS011;46068;52.132;4.618;2023-07-31T03:11:54;32.65;;;7.25;;
60203;SDS011;46068;52.132;4.618;2023-07-31T03:14:20;33.10;;;6.75;;
60203;SDS011;46068;52.132;4.618;2023-07-31T03:16:47;33.55;;;6.40;;
60203;SDS011;46068;52.132;4.618;2023-07-31T03:19:13;33.47;;;7.65;;
60203;SDS011;46068;52.132;4.618;2023-07-31T03:21:39;32.63;;;7.13;;
60203;SDS011;46068;52.132;4.618;2023-07-31T03:24:06;27.70;;;6.20;;
60203;SDS011;46068;52.132;4.618;2023-07-31T03:26:33;31.45;;;6.97;;
60203;SDS011;46068;52.132;4.618;2023-07-31T03:29:01;31.35;;;6.78;;
60203;SDS011;46068;52.132;4.618;2023-07-31T03:31:27;32.60;;;6.70;;
60203;SDS011;46068;52.132;4.618;2023-07-31T03:33:53;32.38;;;6.68;;
60203;SDS011;46068;52.132;4.618;2023-07-31T03:36:20;37.10;;;7.30;;
60203;SDS011;46068;52.132;4.618;2023-07-31T03:38:46;29.15;;;7.70;;
60203;SDS011;46068;52.132;4.618;2023-07-31T03:41:13;38.38;;;7.32;;
60203;SDS011;46068;52.132;4.618;2023-07-31T03:43:40;33.60;;;7.10;;
60203;SDS011;46068;52.132;4.618;2023-07-31T03:46:06;36.17;;;6.63;;
60203;SDS011;46068;52.132;4.618;2023-07-31T03:48:33;31.13;;;6.97;;
60203;SDS011;46068;52.132;4.618;2023-07-31T03:50:59;27.60;;;6.57;;
60203;SDS011;46068;52.132;4.618;2023-07-31T03:53:25;35.33;;;6.47;;
60203;SDS011;46068;52.132;4.618;2023-07-31T03:55:52;28.17;;;5.95;;
60203;SDS011;46068;52.132;4.618;2023-07-31T03:58:18;26.05;;;5.65;;
60203;SDS011;46068;52.132;4.618;2023-07-31T04:00:46;31.55;;;6.45;;
60203;SDS011;46068;52.132;4.618;2023-07-31T04:03:13;32.60;;;6.32;;
60203;SDS011;46068;52.132;4.618;2023-07-31T04:05:39;29.75;;;6.07;;
60203;SDS011;46068;52.132;4.618;2023-07-31T04:08:05;26.98;;;6.70;;
60203;SDS011;46068;52.132;4.618;2023-07-31T04:10:32;28.27;;;5.85;;
60203;SDS011;46068;52.132;4.618;2023-07-31T04:12:58;20.80;;;5.80;;
60203;SDS011;46068;52.132;4.618;2023-07-31T04:15:25;25.80;;;5.13;;
60203;SDS011;46068;52.132;4.618;2023-07-31T04:17:52;19.08;;;4.70;;
60203;SDS011;46068;52.132;4.618;2023-07-31T04:20:19;13.95;;;4.15;;
60203;SDS011;46068;52.132;4.618;2023-07-31T04:22:45;15.02;;;3.70;;
60203;SDS011;46068;52.132;4.618;2023-07-31T04:25:11;12.10;;;3.35;;
60203;SDS011;46068;52.132;4.618;2023-07-31T04:27:37;12.63;;;3.30;;
60203;SDS011;46068;52.132;4.618;2023-07-31T04:30:04;8.55;;;2.90;;
60203;SDS011;46068;52.132;4.618;2023-07-31T04:32:31;7.10;;;2.30;;
60203;SDS011;46068;52.132;4.618;2023-07-31T04:34:58;14.32;;;3.15;;
60203;SDS011;46068;52.132;4.618;2023-07-31T04:37:25;10.98;;;3.08;;
60203;SDS011;46068;52.132;4.618;2023-07-31T04:39:51;5.47;;;2.40;;
60203;SDS011;46068;52.132;4.618;2023-07-31T04:42:17;8.30;;;2.80;;
60203;SDS011;46068;52.132;4.618;2023-07-31T04:44:43;9.52;;;1.90;;
60203;SDS011;46068;52.132;4.618;2023-07-31T04:47:10;6.55;;;1.77;;
60203;SDS011;46068;52.132;4.618;2023-07-31T04:49:36;6.82;;;1.90;;
60203;SDS011;46068;52.132;4.618;2023-07-31T04:52:04;5.97;;;1.80;;
60203;SDS011;46068;52.132;4.618;2023-07-31T04:54:30;7.88;;;2.10;;
60203;SDS011;46068;52.132;4.618;2023-07-31T04:56:57;4.72;;;1.83;;
60203;SDS011;46068;52.132;4.618;2023-07-31T04:59:23;3.15;;;1.35;;
60203;SDS011;46068;52.132;4.618;2023-07-31T05:01:49;5.05;;;1.65;;
60203;SDS011;46068;52.132;4.618;2023-07-31T05:04:15;4.20;;;1.85;;
60203;SDS011;46068;52.132;4.618;2023-07-31T05:06:42;6.88;;;1.70;;
60203;SDS011;46068;52.132;4.618;2023-07-31T05:09:09;4.43;;;2.00;;
60203;SDS011;46068;52.132;4.618;2023-07-31T05:11:36;5.25;;;2.60;;
60203;SDS011;46068;52.132;4.618;2023-07-31T05:14:02;4.97;;;2.35;;
60203;SDS011;46068;52.132;4.618;2023-07-31T05:16:28;3.97;;;2.17;;
60203;SDS011;46068;52.132;4.618;2023-07-31T05:18:55;5.45;;;2.83;;
60203;SDS011;46068;52.132;4.618;2023-07-31T05:21:21;5.15;;;2.40;;
60203;SDS011;46068;52.132;4.618;2023-07-31T05:23:47;5.38;;;2.60;;
60203;SDS011;46068;52.132;4.618;2023-07-31T05:26:15;4.65;;;2.20;;
60203;SDS011;46068;52.132;4.618;2023-07-31T05:28:41;7.22;;;2.72;;
60203;SDS011;46068;52.132;4.618;2023-07-31T05:31:07;7.47;;;3.20;;
60203;SDS011;46068;52.132;4.618;2023-07-31T05:33:34;7.18;;;2.35;;
60203;SDS011;46068;52.132;4.618;2023-07-31T05:36:00;4.45;;;2.30;;
60203;SDS011;46068;52.132;4.618;2023-07-31T05:38:26;7.15;;;2.65;;
60203;SDS011;46068;52.132;4.618;2023-07-31T05:40:52;6.57;;;2.35;;
60203;SDS011;46068;52.132;4.618;2023-07-31T05:43:20;5.32;;;2.60;;
60203;SDS011;46068;52.132;4.618;2023-07-31T05:45:46;5.13;;;2.05;;
60203;SDS011;46068;52.132;4.618;2023-07-31T05:48:13;4.43;;;2.03;;
60203;SDS011;46068;52.132;4.618;2023-07-31T05:50:39;4.43;;;2.15;;
60203;SDS011;46068;52.132;4.618;2023-07-31T05:53:05;4.78;;;2.00;;
60203;SDS011;46068;52.132;4.618;2023-07-31T05:55:33;4.90;;;2.05;;
60203;SDS011;46068;52.132;4.618;2023-07-31T05:57:59;5.82;;;2.00;;
60203;SDS011;46068;52.132;4.618;2023-07-31T06:00:26;4.00;;;1.70;;
60203;SDS011;46068;52.132;4.618;2023-07-31T06:02:53;2.90;;;1.65;;
60203;SDS011;46068;52.132;4.618;2023-07-31T06:05:19;3.95;;;1.83;;
60203;SDS011;46068;52.132;4.618;2023-07-31T06:07:46;3.72;;;1.58;;
60203;SDS011;46068;52.132;4.618;2023-07-31T06:10:12;2.78;;;1.50;;
60203;SDS011;46068;52.132;4.618;2023-07-31T06:12:39;2.78;;;1.80;;
60203;SDS011;46068;52.132;4.618;2023-07-31T06:15:06;2.20;;;1.48;;
60203;SDS011;46068;52.132;4.618;2023-07-31T06:17:33;2.38;;;1.38;;
60203;SDS011;46068;52.132;4.618;2023-07-31T06:19:59;4.03;;;1.40;;
60203;SDS011;46068;52.132;4.618;2023-07-31T06:22:26;2.15;;;1.20;;
60203;SDS011;46068;52.132;4.618;2023-07-31T06:24:52;2.00;;;1.00;;
60203;SDS011;46068;52.132;4.618;2023-07-31T06:27:18;2.17;;;0.95;;
60203;SDS011;46068;52.132;4.618;2023-07-31T06:29:45;1.77;;;1.10;;
60203;SDS011;46068;52.132;4.618;2023-07-31T06:32:11;1.38;;;0.82;;
60203;SDS011;46068;52.132;4.618;2023-07-31T06:34:38;2.58;;;0.90;;
60203;SDS011;46068;52.132;4.618;2023-07-31T06:37:05;3.05;;;1.10;;
60203;SDS011;46068;52.132;4.618;2023-07-31T06:39:31;3.47;;;0.88;;
60203;SDS011;46068;52.132;4.618;2023-07-31T06:41:58;1.15;;;0.60;;
60203;SDS011;46068;52.132;4.618;2023-07-31T06:44:24;2.50;;;0.80;;
60203;SDS011;46068;52.132;4.618;2023-07-31T06:46:51;1.95;;;0.60;;
60203;SDS011;46068;52.132;4.618;2023-07-31T06:49:17;1.60;;;0.65;;
60203;SDS011;46068;52.132;4.618;2023-07-31T06:51:44;1.90;;;0.65;;
60203;SDS011;46068;52.132;4.618;2023-07-31T06:54:11;2.33;;;0.73;;
60203;SDS011;46068;52.132;4.618;2023-07-31T06:56:37;1.50;;;0.60;;
60203;SDS011;46068;52.132;4.618;2023-07-31T06:59:03;3.65;;;0.60;;
60203;SDS011;46068;52.132;4.618;2023-07-31T07:01:30;0.73;;;0.50;;
60203;SDS011;46068;52.132;4.618;2023-07-31T07:03:56;1.15;;;0.60;;
60203;SDS011;46068;52.132;4.618;2023-07-31T07:06:22;1.92;;;0.82;;
60203;SDS011;46068;52.132;4.618;2023-07-31T07:08:50;3.17;;;0.80;;
60203;SDS011;46068;52.132;4.618;2023-07-31T07:11:16;0.77;;;0.50;;
60203;SDS011;46068;52.132;4.618;2023-07-31T07:13:42;0.68;;;0.40;;
60203;SDS011;46068;52.132;4.618;2023-07-31T07:16:09;1.73;;;0.50;;
60203;SDS011;46068;52.132;4.618;2023-07-31T07:18:36;2.08;;;0.40;;
60203;SDS011;46068;52.132;4.618;2023-07-31T07:21:02;0.45;;;0.40;;
60203;SDS011;46068;52.132;4.618;2023-07-31T07:23:28;1.13;;;0.45;;
60203;SDS011;46068;52.132;4.618;2023-07-31T07:25:56;0.55;;;0.38;;
60203;SDS011;46068;52.132;4.618;2023-07-31T07:28:22;0.60;;;0.40;;
60203;SDS011;46068;52.132;4.618;2023-07-31T07:30:50;0.50;;;0.30;;
60203;SDS011;46068;52.132;4.618;2023-07-31T07:33:17;0.93;;;0.30;;
60203;SDS011;46068;52.132;4.618;2023-07-31T07:35:43;1.38;;;0.40;;
60203;SDS011;46068;52.132;4.618;2023-07-31T07:38:09;0.80;;;0.30;;
60203;SDS011;46068;52.132;4.618;2023-07-31T07:40:38;0.17;;;0.17;;
60203;SDS011;46068;52.132;4.618;2023-07-31T07:43:05;1.08;;;0.32;;
60203;SDS011;46068;52.132;4.618;2023-07-31T07:45:32;1.55;;;0.30;;
60203;SDS011;46068;52.132;4.618;2023-07-31T07:47:58;0.90;;;0.28;;
60203;SDS011;46068;52.132;4.618;2023-07-31T07:50:25;3.22;;;0.57;;
60203;SDS011;46068;52.132;4.618;2023-07-31T07:52:51;0.40;;;0.30;;
60203;SDS011;46068;52.132;4.618;2023-07-31T07:55:18;0.47;;;0.30;;
60203;SDS011;46068;52.132;4.618;2023-07-31T07:57:44;1.10;;;0.40;;
60203;SDS011;46068;52.132;4.618;2023-07-31T08:00:12;1.65;;;0.43;;
60203;SDS011;46068;52.132;4.618;2023-07-31T08:02:39;0.50;;;0.40;;
60203;SDS011;46068;52.132;4.618;2023-07-31T08:05:05;1.27;;;0.57;;
60203;SDS011;46068;52.132;4.618;2023-07-31T08:07:31;1.10;;;0.68;;
60203;SDS011;46068;52.132;4.618;2023-07-31T08:09:58;2.30;;;0.80;;
60203;SDS011;46068;52.132;4.618;2023-07-31T08:12:24;4.13;;;1.10;;
60203;SDS011;46068;52.132;4.618;2023-07-31T08:14:51;3.97;;;1.27;;
60203;SDS011;46068;52.132;4.618;2023-07-31T08:17:18;2.78;;;1.25;;
60203;SDS011;46068;52.132;4.618;2023-07-31T08:19:45;4.80;;;1.73;;
60203;SDS011;46068;52.132;4.618;2023-07-31T08:22:11;3.92;;;1.70;;
60203;SDS011;46068;52.132;4.618;2023-07-31T08:24:37;7.90;;;1.50;;
60203;SDS011;46068;52.132;4.618;2023-07-31T08:27:05;7.78;;;1.92;;
60203;SDS011;46068;52.132;4.618;2023-07-31T08:29:32;11.43;;;2.17;;
60203;SDS011;46068;52.132;4.618;2023-07-31T08:31:58;10.20;;;2.38;;
60203;SDS011;46068;52.132;4.618;2023-07-31T08:34:25;13.20;;;2.40;;
60203;SDS011;46068;52.132;4.618;2023-07-31T08:36:52;12.77;;;2.47;;
60203;SDS011;46068;52.132;4.618;2023-07-31T08:39:18;12.40;;;2.67;;
60203;SDS011;46068;52.132;4.618;2023-07-31T08:41:44;13.82;;;2.95;;
60203;SDS011;46068;52.132;4.618;2023-07-31T08:44:10;8.30;;;2.10;;
60203;SDS011;46068;52.132;4.618;2023-07-31T08:46:38;15.10;;;2.55;;
60203;SDS011;46068;52.132;4.618;2023-07-31T08:49:04;14.38;;;2.65;;
60203;SDS011;46068;52.132;4.618;2023-07-31T08:51:33;16.25;;;2.72;;
60203;SDS011;46068;52.132;4.618;2023-07-31T08:53:59;14.73;;;2.75;;
60203;SDS011;46068;52.132;4.618;2023-07-31T08:56:26;13.57;;;2.58;;
60203;SDS011;46068;52.132;4.618;2023-07-31T08:58:52;16.42;;;2.88;;
60203;SDS011;46068;52.132;4.618;2023-07-31T09:01:19;13.05;;;2.47;;
60203;SDS011;46068;52.132;4.618;2023-07-31T09:03:46;14.38;;;2.72;;
60203;SDS011;46068;52.132;4.618;2023-07-31T09:06:13;12.68;;;2.63;;
60203;SDS011;46068;52.132;4.618;2023-07-31T09:08:41;14.38;;;2.25;;
60203;SDS011;46068;52.132;4.618;2023-07-31T09:11:08;13.13;;;2.78;;
60203;SDS011;46068;52.132;4.618;2023-07-31T09:13:34;16.13;;;2.53;;
60203;SDS011;46068;52.132;4.618;2023-07-31T09:16:00;6.90;;;2.10;;
60203;SDS011;46068;52.132;4.618;2023-07-31T09:18:26;13.57;;;2.38;;
60203;SDS011;46068;52.132;4.618;2023-07-31T09:21:02;16.00;;;3.13;;
60203;SDS011;46068;52.132;4.618;2023-07-31T09:23:41;22.50;;;3.15;;
60203;SDS011;46068;52.132;4.618;2023-07-31T09:26:07;17.90;;;3.08;;
60203;SDS011;46068;52.132;4.618;2023-07-31T09:28:34;11.98;;;2.70;;
60203;SDS011;46068;52.132;4.618;2023-07-31T09:31:00;14.82;;;2.53;;
60203;SDS011;46068;52.132;4.618;2023-07-31T09:33:26;15.40;;;2.90;;
60203;SDS011;46068;52.132;4.618;2023-07-31T09:35:53;10.57;;;2.38;;
60203;SDS011;46068;52.132;4.618;2023-07-31T09:38:19;14.80;;;2.45;;
60203;SDS011;46068;52.132;4.618;2023-07-31T09:40:47;9.35;;;2.78;;
60203;SDS011;46068;52.132;4.618;2023-07-31T09:43:16;11.75;;;2.13;;
60203;SDS011;46068;52.132;4.618;2023-07-31T09:45:43;15.93;;;2.28;;
60203;SDS011;46068;52.132;4.618;2023-07-31T09:48:11;12.40;;;2.58;;
60203;SDS011;46068;52.132;4.618;2023-07-31T09:50:38;19.27;;;2.95;;
60203;SDS011;46068;52.132;4.618;2023-07-31T09:53:04;11.88;;;2.42;;
60203;SDS011;46068;52.132;4.618;2023-07-31T09:55:31;12.38;;;2.72;;
60203;SDS011;46068;52.132;4.618;2023-07-31T09:57:59;8.85;;;2.28;;
60203;SDS011;46068;52.132;4.618;2023-07-31T10:00:25;12.10;;;2.78;;
60203;SDS011;46068;52.132;4.618;2023-07-31T10:02:53;12.98;;;2.58;;
60203;SDS011;46068;52.132;4.618;2023-07-31T10:05:20;13.05;;;3.00;;
60203;SDS011;46068;52.132;4.618;2023-07-31T10:07:49;18.55;;;2.90;;
60203;SDS011;46068;52.132;4.618;2023-07-31T10:10:17;14.30;;;3.15;;
60203;SDS011;46068;52.132;4.618;2023-07-31T10:12:46;11.52;;;2.60;;
60203;SDS011;46068;52.132;4.618;2023-07-31T10:15:15;14.02;;;2.80;;
60203;SDS011;46068;52.132;4.618;2023-07-31T10:17:41;12.00;;;2.70;;
60203;SDS011;46068;52.132;4.618;2023-07-31T10:20:08;12.40;;;2.65;;
60203;SDS011;46068;52.132;4.618;2023-07-31T10:22:35;15.32;;;2.95;;
60203;SDS011;46068;52.132;4.618;2023-07-31T10:25:02;14.57;;;3.30;;
60203;SDS011;46068;52.132;4.618;2023-07-31T10:27:29;13.23;;;3.40;;
60203;SDS011;46068;52.132;4.618;2023-07-31T10:29:56;10.82;;;2.45;;
60203;SDS011;46068;52.132;4.618;2023-07-31T10:32:25;12.73;;;2.65;;
60203;SDS011;46068;52.132;4.618;2023-07-31T10:34:51;10.02;;;2.95;;
60203;SDS011;46068;52.132;4.618;2023-07-31T10:37:21;13.80;;;3.20;;
60203;SDS011;46068;52.132;4.618;2023-07-31T10:39:55;14.98;;;2.85;;
60203;SDS011;46068;52.132;4.618;2023-07-31T10:42:24;12.20;;;2.50;;
60203;SDS011;46068;52.132;4.618;2023-07-31T10:44:56;16.15;;;2.78;;
60203;SDS011;46068;52.132;4.618;2023-07-31T10:47:24;19.08;;;3.35;;
60203;SDS011;46068;52.132;4.618;2023-07-31T10:49:50;21.10;;;3.40;;
60203;SDS011;46068;52.132;4.618;2023-07-31T10:52:19;18.65;;;2.90;;
60203;SDS011;46068;52.132;4.618;2023-07-31T10:54:47;11.73;;;3.03;;
60203;SDS011;46068;52.132;4.618;2023-07-31T10:57:20;13.63;;;3.03;;
60203;SDS011;46068;52.132;4.618;2023-07-31T10:59:47;12.55;;;2.75;;
60203;SDS011;46068;52.132;4.618;2023-07-31T11:02:23;17.40;;;3.10;;
60203;SDS011;46068;52.132;4.618;2023-07-31T11:07:48;11.10;;;2.30;;
60203;SDS011;46068;52.132;4.618;2023-07-31T11:10:18;13.43;;;2.45;;
60203;SDS011;46068;52.132;4.618;2023-07-31T11:12:45;7.78;;;2.10;;
60203;SDS011;46068;52.132;4.618;2023-07-31T11:15:11;9.90;;;2.10;;
60203;SDS011;46068;52.132;4.618;2023-07-31T11:17:38;14.52;;;2.60;;
60203;SDS011;46068;52.132;4.618;2023-07-31T11:20:05;7.45;;;1.88;;
60203;SDS011;46068;52.132;4.618;2023-07-31T11:22:31;7.90;;;2.25;;
60203;SDS011;46068;52.132;4.618;2023-07-31T11:24:59;10.32;;;2.58;;
60203;SDS011;46068;52.132;4.618;2023-07-31T11:27:27;9.50;;;2.20;;
60203;SDS011;46068;52.132;4.618;2023-07-31T11:29:53;8.75;;;2.10;;
60203;SDS011;46068;52.132;4.618;2023-07-31T11:32:19;10.55;;;1.98;;
60203;SDS011;46068;52.132;4.618;2023-07-31T11:34:52;20.65;;;2.95;;
60203;SDS011;46068;52.132;4.618;2023-07-31T11:37:18;8.15;;;2.28;;
60203;SDS011;46068;52.132;4.618;2023-07-31T11:39:57;8.93;;;2.35;;
60203;SDS011;46068;52.132;4.618;2023-07-31T11:42:25;11.93;;;2.20;;
60203;SDS011;46068;52.132;4.618;2023-07-31T11:44:51;10.05;;;2.60;;
60203;SDS011;46068;52.132;4.618;2023-07-31T11:47:18;8.07;;;2.17;;
60203;SDS011;46068;52.132;4.618;2023-07-31T11:49:44;8.43;;;2.28;;
60203;SDS011;46068;52.132;4.618;2023-07-31T11:52:10;12.05;;;2.30;;
60203;SDS011;46068;52.132;4.618;2023-07-31T11:54:37;11.73;;;2.03;;
60203;SDS011;46068;52.132;4.618;2023-07-31T11:57:04;10.13;;;2.40;;
60203;SDS011;46068;52.132;4.618;2023-07-31T11:59:32;8.63;;;2.13;;
60203;SDS011;46068;52.132;4.618;2023-07-31T12:01:58;9.48;;;1.98;;
60203;SDS011;46068;52.132;4.618;2023-07-31T12:04:25;11.57;;;2.15;;
60203;SDS011;46068;52.132;4.618;2023-07-31T12:06:52;6.82;;;1.75;;
60203;SDS011;46068;52.132;4.618;2023-07-31T12:09:19;7.60;;;1.67;;
60203;SDS011;46068;52.132;4.618;2023-07-31T12:11:45;8.68;;;1.80;;
60203;SDS011;46068;52.132;4.618;2023-07-31T12:14:19;11.70;;;2.30;;
60203;SDS011;46068;52.132;4.618;2023-07-31T12:16:46;10.77;;;2.13;;
60203;SDS011;46068;52.132;4.618;2023-07-31T12:19:13;4.85;;;1.73;;
60203;SDS011;46068;52.132;4.618;2023-07-31T12:21:39;8.15;;;1.83;;
60203;SDS011;46068;52.132;4.618;2023-07-31T12:24:05;7.68;;;1.52;;
60203;SDS011;46068;52.132;4.618;2023-07-31T12:26:33;6.53;;;1.63;;
60203;SDS011;46068;52.132;4.618;2023-07-31T12:29:00;5.63;;;1.50;;
60203;SDS011;46068;52.132;4.618;2023-07-31T12:31:27;6.97;;;1.70;;
60203;SDS011;46068;52.132;4.618;2023-07-31T12:33:55;6.38;;;1.55;;
60203;SDS011;46068;52.132;4.618;2023-07-31T12:36:23;12.30;;;1.90;;
60203;SDS011;46068;52.132;4.618;2023-07-31T12:38:49;7.15;;;1.67;;
60203;SDS011;46068;52.132;4.618;2023-07-31T12:41:16;6.20;;;1.55;;
60203;SDS011;46068;52.132;4.618;2023-07-31T12:43:43;5.93;;;1.75;;
60203;SDS011;46068;52.132;4.618;2023-07-31T12:46:09;7.63;;;1.70;;
60203;SDS011;46068;52.132;4.618;2023-07-31T12:48:36;5.78;;;1.65;;
60203;SDS011;46068;52.132;4.618;2023-07-31T12:51:04;8.20;;;1.98;;
60203;SDS011;46068;52.132;4.618;2023-07-31T12:53:31;7.72;;;2.00;;
60203;SDS011;46068;52.132;4.618;2023-07-31T12:55:58;8.07;;;1.85;;
60203;SDS011;46068;52.132;4.618;2023-07-31T12:58:24;6.47;;;1.60;;
60203;SDS011;46068;52.132;4.618;2023-07-31T13:00:50;11.35;;;2.05;;
60203;SDS011;46068;52.132;4.618;2023-07-31T13:03:17;9.23;;;1.75;;
60203;SDS011;46068;52.132;4.618;2023-07-31T13:05:43;11.50;;;1.70;;
60203;SDS011;46068;52.132;4.618;2023-07-31T13:08:11;6.50;;;1.73;;
60203;SDS011;46068;52.132;4.618;2023-07-31T13:10:37;7.68;;;1.60;;
60203;SDS011;46068;52.132;4.618;2023-07-31T13:13:03;4.47;;;1.38;;
60203;SDS011;46068;52.132;4.618;2023-07-31T13:15:29;4.30;;;1.10;;
60203;SDS011;46068;52.132;4.618;2023-07-31T13:17:56;4.55;;;1.48;;
60203;SDS011;46068;52.132;4.618;2023-07-31T13:20:22;3.50;;;1.13;;
60203;SDS011;46068;52.132;4.618;2023-07-31T13:22:48;5.22;;;1.25;;
60203;SDS011;46068;52.132;4.618;2023-07-31T13:25:16;4.22;;;1.40;;
60203;SDS011;46068;52.132;4.618;2023-07-31T13:27:42;3.17;;;0.70;;
60203;SDS011;46068;52.132;4.618;2023-07-31T13:30:08;3.65;;;1.00;;
60203;SDS011;46068;52.132;4.618;2023-07-31T13:32:35;5.18;;;1.30;;
60203;SDS011;46068;52.132;4.618;2023-07-31T13:35:03;3.25;;;0.90;;
60203;SDS011;46068;52.132;4.618;2023-07-31T13:37:30;1.50;;;0.90;;
60203;SDS011;46068;52.132;4.618;2023-07-31T13:39:56;3.25;;;1.30;;
60203;SDS011;46068;52.132;4.618;2023-07-31T13:42:24;1.48;;;1.00;;
60203;SDS011;46068;52.132;4.618;2023-07-31T13:44:50;4.47;;;1.20;;
60203;SDS011;46068;52.132;4.618;2023-07-31T13:47:16;6.85;;;1.60;;
60203;SDS011;46068;52.132;4.618;2023-07-31T13:49:42;6.25;;;1.27;;
60203;SDS011;46068;52.132;4.618;2023-07-31T13:52:09;4.93;;;1.50;;
60203;SDS011;46068;52.132;4.618;2023-07-31T13:54:35;3.97;;;1.20;;
60203;SDS011;46068;52.132;4.618;2023-07-31T13:57:02;4.05;;;1.30;;
60203;SDS011;46068;52.132;4.618;2023-07-31T13:59:29;3.72;;;1.42;;
60203;SDS011;46068;52.132;4.618;2023-07-31T14:01:56;3.78;;;0.98;;
60203;SDS011;46068;52.132;4.618;2023-07-31T14:04:22;3.30;;;1.13;;
60203;SDS011;46068;52.132;4.618;2023-07-31T14:06:48;3.38;;;0.90;;
60203;SDS011;46068;52.132;4.618;2023-07-31T14:09:15;2.25;;;0.73;;
60203;SDS011;46068;52.132;4.618;2023-07-31T14:11:42;1.60;;;0.77;;
60203;SDS011;46068;52.132;4.618;2023-07-31T14:14:09;2.45;;;0.60;;
60203;SDS011;46068;52.132;4.618;2023-07-31T14:16:36;3.33;;;0.93;;
60203;SDS011;46068;52.132;4.618;2023-07-31T14:19:03;2.97;;;0.82;;
60203;SDS011;46068;52.132;4.618;2023-07-31T14:21:29;4.47;;;0.75;;
60203;SDS011;46068;52.132;4.618;2023-07-31T14:23:55;2.13;;;0.65;;
60203;SDS011;46068;52.132;4.618;2023-07-31T14:26:21;2.55;;;0.82;;
60203;SDS011;46068;52.132;4.618;2023-07-31T14:28:48;1.40;;;0.47;;
60203;SDS011;46068;52.132;4.618;2023-07-31T14:31:14;1.08;;;0.40;;
60203;SDS011;46068;52.132;4.618;2023-07-31T14:33:42;1.63;;;0.50;;
60203;SDS011;46068;52.132;4.618;2023-07-31T14:36:08;2.22;;;0.60;;
60203;SDS011;46068;52.132;4.618;2023-07-31T14:38:34;2.80;;;0.43;;
60203;SDS011;46068;52.132;4.618;2023-07-31T14:41:00;2.55;;;0.73;;
60203;SDS011;46068;52.132;4.618;2023-07-31T14:43:27;2.80;;;0.65;;